sensor_id;sensor_type;location;lat;lon;timestamp;P1;durP1;ratioP1;P2;durP2;ratioP2
3811;SDS011;1921;49.368;11.068;2022-08-19T00:01:30;89.30;;;69.80;;
3811;SDS011;1921;49.368;11.068;2022-08-19T00:03:58;89.93;;;71.57;;
3811;SDS011;1921;49.368;11.068;2022-08-19T00:06:27;90.23;;;68.97;;
3811;SDS011;1921;49.368;11.068;2022-08-19T00:08:54;84.90;;;67.83;;
3811;SDS011;1921;49.368;11.068;2022-08-19T00:11:20;83.83;;;65.87;;
3811;SDS011;1921;49.368;11.068;2022-08-19T00:13:46;88.17;;;68.10;;
3811;SDS011;1921;49.368;11.068;2022-08-19T00:16:13;83.50;;;66.97;;
3811;SDS011;1921;49.368;11.068;2022-08-19T00:18:40;82.40;;;65.80;;
3811;SDS011;1921;49.368;11.068;2022-08-19T00:21:05;85.53;;;65.93;;
3811;SDS011;1921;49.368;11.068;2022-08-19T00:23:33;81.47;;;67.00;;
3811;SDS011;1921;49.368;11.068;2022-08-19T00:26:01;84.70;;;66.00;;
3811;SDS011;1921;49.368;11.068;2022-08-19T00:28:29;82.63;;;66.87;;
3811;SDS011;1921;49.368;11.068;2022-08-19T00:30:56;86.73;;;66.83;;
3811;SDS011;1921;49.368;11.068;2022-08-19T00:33:22;81.60;;;64.57;;
3811;SDS011;1921;49.368;11.068;2022-08-19T00:35:47;83.33;;;65.60;;
3811;SDS011;1921;49.368;11.068;2022-08-19T00:38:13;89.13;;;67.47;;
3811;SDS011;1921;49.368;11.068;2022-08-19T00:40:39;83.17;;;66.00;;
3811;SDS011;1921;49.368;11.068;2022-08-19T00:43:09;85.17;;;67.10;;
3811;SDS011;1921;49.368;11.068;2022-08-19T00:45:38;82.43;;;65.50;;
3811;SDS011;1921;49.368;11.068;2022-08-19T00:48:06;83.70;;;66.47;;
3811;SDS011;1921;49.368;11.068;2022-08-19T00:50:32;86.73;;;65.83;;
3811;SDS011;1921;49.368;11.068;2022-08-19T00:52:59;81.80;;;65.50;;
3811;SDS011;1921;49.368;11.068;2022-08-19T00:55:29;82.60;;;65.10;;
3811;SDS011;1921;49.368;11.068;2022-08-19T00:58:02;79.90;;;64.30;;
3811;SDS011;1921;49.368;11.068;2022-08-19T01:00:33;82.87;;;66.20;;
3811;SDS011;1921;49.368;11.068;2022-08-19T01:03:03;84.33;;;65.87;;
3811;SDS011;1921;49.368;11.068;2022-08-19T01:05:33;81.83;;;65.07;;
3811;SDS011;1921;49.368;11.068;2022-08-19T01:08:01;83.17;;;66.47;;
3811;SDS011;1921;49.368;11.068;2022-08-19T01:10:31;83.80;;;65.90;;
3811;SDS011;1921;49.368;11.068;2022-08-19T01:13:02;83.07;;;66.60;;
3811;SDS011;1921;49.368;11.068;2022-08-19T01:15:33;85.20;;;67.07;;
3811;SDS011;1921;49.368;11.068;2022-08-19T01:18:08;82.67;;;66.77;;
3811;SDS011;1921;49.368;11.068;2022-08-19T01:20:36;79.83;;;64.80;;
3811;SDS011;1921;49.368;11.068;2022-08-19T01:23:03;79.40;;;65.13;;
3811;SDS011;1921;49.368;11.068;2022-08-19T01:25:31;82.97;;;65.10;;
3811;SDS011;1921;49.368;11.068;2022-08-19T01:28:18;86.10;;;65.47;;
3811;SDS011;1921;49.368;11.068;2022-08-19T01:30:48;86.80;;;67.80;;
3811;SDS011;1921;49.368;11.068;2022-08-19T01:33:14;84.10;;;67.77;;
3811;SDS011;1921;49.368;11.068;2022-08-19T01:35:40;83.47;;;67.57;;
3811;SDS011;1921;49.368;11.068;2022-08-19T01:38:08;84.07;;;67.20;;
3811;SDS011;1921;49.368;11.068;2022-08-19T01:40:47;83.80;;;65.83;;
3811;SDS011;1921;49.368;11.068;2022-08-19T01:43:13;80.70;;;65.20;;
3811;SDS011;1921;49.368;11.068;2022-08-19T01:45:39;85.77;;;66.60;;
3811;SDS011;1921;49.368;11.068;2022-08-19T01:48:05;87.13;;;67.87;;
3811;SDS011;1921;49.368;11.068;2022-08-19T01:50:32;84.23;;;67.00;;
3811;SDS011;1921;49.368;11.068;2022-08-19T01:52:59;88.83;;;67.47;;
3811;SDS011;1921;49.368;11.068;2022-08-19T01:55:29;85.43;;;66.70;;
3811;SDS011;1921;49.368;11.068;2022-08-19T01:57:56;88.30;;;64.93;;
3811;SDS011;1921;49.368;11.068;2022-08-19T02:00:25;87.73;;;67.80;;
3811;SDS011;1921;49.368;11.068;2022-08-19T02:02:54;87.60;;;68.13;;
3811;SDS011;1921;49.368;11.068;2022-08-19T02:05:20;86.87;;;66.97;;
3811;SDS011;1921;49.368;11.068;2022-08-19T02:07:46;85.57;;;67.53;;
3811;SDS011;1921;49.368;11.068;2022-08-19T02:10:17;86.40;;;67.30;;
3811;SDS011;1921;49.368;11.068;2022-08-19T02:12:46;83.17;;;65.20;;
3811;SDS011;1921;49.368;11.068;2022-08-19T02:15:12;87.93;;;68.40;;
3811;SDS011;1921;49.368;11.068;2022-08-19T02:17:38;89.07;;;67.90;;
3811;SDS011;1921;49.368;11.068;2022-08-19T02:20:05;82.40;;;66.90;;
3811;SDS011;1921;49.368;11.068;2022-08-19T02:22:32;84.00;;;66.87;;
3811;SDS011;1921;49.368;11.068;2022-08-19T02:24:58;86.67;;;68.33;;
3811;SDS011;1921;49.368;11.068;2022-08-19T02:27:24;85.40;;;68.63;;
3811;SDS011;1921;49.368;11.068;2022-08-19T02:29:50;87.17;;;68.77;;
3811;SDS011;1921;49.368;11.068;2022-08-19T02:32:17;81.80;;;65.40;;
3811;SDS011;1921;49.368;11.068;2022-08-19T02:34:44;84.67;;;68.10;;
3811;SDS011;1921;49.368;11.068;2022-08-19T02:37:11;84.23;;;67.23;;
3811;SDS011;1921;49.368;11.068;2022-08-19T02:39:57;86.43;;;67.37;;
3811;SDS011;1921;49.368;11.068;2022-08-19T02:42:23;85.20;;;67.80;;
3811;SDS011;1921;49.368;11.068;2022-08-19T02:44:49;86.87;;;68.33;;
3811;SDS011;1921;49.368;11.068;2022-08-19T02:47:16;88.33;;;68.67;;
3811;SDS011;1921;49.368;11.068;2022-08-19T02:49:44;87.93;;;69.10;;
3811;SDS011;1921;49.368;11.068;2022-08-19T02:52:10;87.13;;;66.80;;
3811;SDS011;1921;49.368;11.068;2022-08-19T02:54:36;87.20;;;67.50;;
3811;SDS011;1921;49.368;11.068;2022-08-19T02:57:03;86.30;;;68.13;;
3811;SDS011;1921;49.368;11.068;2022-08-19T02:59:31;89.10;;;68.53;;
3811;SDS011;1921;49.368;11.068;2022-08-19T03:01:57;88.43;;;66.87;;
3811;SDS011;1921;49.368;11.068;2022-08-19T03:04:23;88.43;;;67.20;;
3811;SDS011;1921;49.368;11.068;2022-08-19T03:06:49;90.00;;;69.03;;
3811;SDS011;1921;49.368;11.068;2022-08-19T03:09:16;87.80;;;67.90;;
3811;SDS011;1921;49.368;11.068;2022-08-19T03:11:44;87.63;;;68.10;;
3811;SDS011;1921;49.368;11.068;2022-08-19T03:14:10;89.10;;;68.70;;
3811;SDS011;1921;49.368;11.068;2022-08-19T03:16:42;89.03;;;68.03;;
3811;SDS011;1921;49.368;11.068;2022-08-19T03:19:16;85.60;;;67.67;;
3811;SDS011;1921;49.368;11.068;2022-08-19T03:21:46;86.70;;;68.67;;
3811;SDS011;1921;49.368;11.068;2022-08-19T03:24:12;89.53;;;67.70;;
3811;SDS011;1921;49.368;11.068;2022-08-19T03:26:40;92.73;;;70.40;;
3811;SDS011;1921;49.368;11.068;2022-08-19T03:29:10;92.80;;;71.47;;
3811;SDS011;1921;49.368;11.068;2022-08-19T03:31:37;87.37;;;67.47;;
3811;SDS011;1921;49.368;11.068;2022-08-19T03:34:05;89.60;;;68.73;;
3811;SDS011;1921;49.368;11.068;2022-08-19T03:36:30;86.10;;;69.00;;
3811;SDS011;1921;49.368;11.068;2022-08-19T03:38:57;84.27;;;63.37;;
3811;SDS011;1921;49.368;11.068;2022-08-19T03:41:26;86.40;;;66.90;;
3811;SDS011;1921;49.368;11.068;2022-08-19T03:43:55;86.47;;;67.60;;
3811;SDS011;1921;49.368;11.068;2022-08-19T03:46:26;91.70;;;69.50;;
3811;SDS011;1921;49.368;11.068;2022-08-19T03:48:56;90.50;;;67.00;;
3811;SDS011;1921;49.368;11.068;2022-08-19T03:51:25;93.20;;;69.40;;
3811;SDS011;1921;49.368;11.068;2022-08-19T03:53:56;87.23;;;68.67;;
3811;SDS011;1921;49.368;11.068;2022-08-19T03:56:25;91.57;;;68.77;;
3811;SDS011;1921;49.368;11.068;2022-08-19T03:58:52;88.53;;;68.07;;
3811;SDS011;1921;49.368;11.068;2022-08-19T04:01:21;86.43;;;66.93;;
3811;SDS011;1921;49.368;11.068;2022-08-19T04:03:51;87.90;;;67.87;;
3811;SDS011;1921;49.368;11.068;2022-08-19T04:06:20;88.00;;;67.90;;
3811;SDS011;1921;49.368;11.068;2022-08-19T04:08:58;89.10;;;67.23;;
3811;SDS011;1921;49.368;11.068;2022-08-19T04:11:28;91.33;;;68.10;;
3811;SDS011;1921;49.368;11.068;2022-08-19T04:13:58;92.70;;;68.17;;
3811;SDS011;1921;49.368;11.068;2022-08-19T04:16:25;89.70;;;69.43;;
3811;SDS011;1921;49.368;11.068;2022-08-19T04:18:54;85.60;;;67.30;;
3811;SDS011;1921;49.368;11.068;2022-08-19T04:21:23;92.60;;;69.87;;
3811;SDS011;1921;49.368;11.068;2022-08-19T04:23:51;95.33;;;69.07;;
3811;SDS011;1921;49.368;11.068;2022-08-19T04:26:19;90.90;;;68.93;;
3811;SDS011;1921;49.368;11.068;2022-08-19T04:28:49;89.27;;;68.43;;
3811;SDS011;1921;49.368;11.068;2022-08-19T04:31:21;92.73;;;70.27;;
3811;SDS011;1921;49.368;11.068;2022-08-19T04:33:51;88.00;;;67.60;;
3811;SDS011;1921;49.368;11.068;2022-08-19T04:36:30;89.67;;;68.33;;
3811;SDS011;1921;49.368;11.068;2022-08-19T04:39:00;92.27;;;69.70;;
3811;SDS011;1921;49.368;11.068;2022-08-19T04:41:31;94.93;;;69.27;;
3811;SDS011;1921;49.368;11.068;2022-08-19T04:44:16;90.47;;;69.50;;
3811;SDS011;1921;49.368;11.068;2022-08-19T04:46:46;93.60;;;69.67;;
3811;SDS011;1921;49.368;11.068;2022-08-19T04:49:14;92.00;;;69.20;;
3811;SDS011;1921;49.368;11.068;2022-08-19T04:51:42;95.67;;;69.90;;
3811;SDS011;1921;49.368;11.068;2022-08-19T04:54:12;89.97;;;68.67;;
3811;SDS011;1921;49.368;11.068;2022-08-19T04:56:39;96.47;;;70.30;;
3811;SDS011;1921;49.368;11.068;2022-08-19T04:59:05;91.27;;;68.20;;
3811;SDS011;1921;49.368;11.068;2022-08-19T05:01:33;99.80;;;70.63;;
3811;SDS011;1921;49.368;11.068;2022-08-19T05:04:01;91.17;;;67.40;;
3811;SDS011;1921;49.368;11.068;2022-08-19T05:06:31;85.40;;;63.33;;
3811;SDS011;1921;49.368;11.068;2022-08-19T05:08:59;87.13;;;65.83;;
3811;SDS011;1921;49.368;11.068;2022-08-19T05:11:29;84.67;;;64.70;;
3811;SDS011;1921;49.368;11.068;2022-08-19T05:13:59;85.20;;;65.60;;
3811;SDS011;1921;49.368;11.068;2022-08-19T05:16:26;82.40;;;61.37;;
3811;SDS011;1921;49.368;11.068;2022-08-19T05:18:52;89.27;;;65.07;;
3811;SDS011;1921;49.368;11.068;2022-08-19T05:21:39;82.43;;;59.77;;
3811;SDS011;1921;49.368;11.068;2022-08-19T05:24:25;87.00;;;65.20;;
3811;SDS011;1921;49.368;11.068;2022-08-19T05:26:52;85.13;;;64.30;;
3811;SDS011;1921;49.368;11.068;2022-08-19T05:29:21;79.13;;;62.00;;
3811;SDS011;1921;49.368;11.068;2022-08-19T05:31:49;85.33;;;64.17;;
3811;SDS011;1921;49.368;11.068;2022-08-19T05:34:17;89.20;;;63.53;;
3811;SDS011;1921;49.368;11.068;2022-08-19T05:36:47;85.57;;;64.47;;
3811;SDS011;1921;49.368;11.068;2022-08-19T05:39:17;86.63;;;67.43;;
3811;SDS011;1921;49.368;11.068;2022-08-19T05:41:46;87.77;;;65.77;;
3811;SDS011;1921;49.368;11.068;2022-08-19T05:44:14;90.27;;;68.40;;
3811;SDS011;1921;49.368;11.068;2022-08-19T05:46:42;74.30;;;56.37;;
3811;SDS011;1921;49.368;11.068;2022-08-19T05:49:12;91.03;;;66.83;;
3811;SDS011;1921;49.368;11.068;2022-08-19T05:51:39;90.73;;;66.27;;
3811;SDS011;1921;49.368;11.068;2022-08-19T05:54:05;85.43;;;67.00;;
3811;SDS011;1921;49.368;11.068;2022-08-19T05:56:33;88.30;;;66.50;;
3811;SDS011;1921;49.368;11.068;2022-08-19T05:59:01;86.83;;;65.07;;
3811;SDS011;1921;49.368;11.068;2022-08-19T06:01:27;89.10;;;68.03;;
3811;SDS011;1921;49.368;11.068;2022-08-19T06:03:53;84.70;;;65.80;;
3811;SDS011;1921;49.368;11.068;2022-08-19T06:06:19;87.90;;;65.90;;
3811;SDS011;1921;49.368;11.068;2022-08-19T06:08:45;83.73;;;64.20;;
3811;SDS011;1921;49.368;11.068;2022-08-19T06:14:00;90.80;;;67.93;;
3811;SDS011;1921;49.368;11.068;2022-08-19T06:16:35;91.30;;;69.30;;
3811;SDS011;1921;49.368;11.068;2022-08-19T06:19:04;90.10;;;66.07;;
3811;SDS011;1921;49.368;11.068;2022-08-19T06:21:35;94.13;;;71.40;;
3811;SDS011;1921;49.368;11.068;2022-08-19T06:24:04;91.93;;;68.97;;
3811;SDS011;1921;49.368;11.068;2022-08-19T06:26:33;94.80;;;69.30;;
3811;SDS011;1921;49.368;11.068;2022-08-19T06:29:00;89.87;;;67.97;;
3811;SDS011;1921;49.368;11.068;2022-08-19T06:31:28;88.23;;;67.33;;
3811;SDS011;1921;49.368;11.068;2022-08-19T06:33:56;92.83;;;69.80;;
3811;SDS011;1921;49.368;11.068;2022-08-19T06:38:54;94.30;;;68.50;;
3811;SDS011;1921;49.368;11.068;2022-08-19T06:41:22;87.77;;;66.73;;
3811;SDS011;1921;49.368;11.068;2022-08-19T06:43:49;92.67;;;69.17;;
3811;SDS011;1921;49.368;11.068;2022-08-19T06:46:16;89.50;;;68.70;;
3811;SDS011;1921;49.368;11.068;2022-08-19T06:48:43;86.50;;;66.80;;
3811;SDS011;1921;49.368;11.068;2022-08-19T06:51:10;82.53;;;62.60;;
3811;SDS011;1921;49.368;11.068;2022-08-19T06:53:36;86.07;;;65.73;;
3811;SDS011;1921;49.368;11.068;2022-08-19T06:56:04;85.53;;;66.43;;
3811;SDS011;1921;49.368;11.068;2022-08-19T06:58:30;88.80;;;71.03;;
3811;SDS011;1921;49.368;11.068;2022-08-19T07:01:02;85.50;;;66.77;;
3811;SDS011;1921;49.368;11.068;2022-08-19T07:03:30;86.67;;;67.13;;
3811;SDS011;1921;49.368;11.068;2022-08-19T07:06:03;88.80;;;66.27;;
3811;SDS011;1921;49.368;11.068;2022-08-19T07:08:40;87.50;;;66.70;;
3811;SDS011;1921;49.368;11.068;2022-08-19T07:11:08;84.37;;;62.60;;
3811;SDS011;1921;49.368;11.068;2022-08-19T07:13:37;84.63;;;61.03;;
3811;SDS011;1921;49.368;11.068;2022-08-19T07:16:07;87.40;;;67.53;;
3811;SDS011;1921;49.368;11.068;2022-08-19T07:18:33;85.70;;;65.73;;
3811;SDS011;1921;49.368;11.068;2022-08-19T07:21:04;87.90;;;65.33;;
3811;SDS011;1921;49.368;11.068;2022-08-19T07:23:33;83.50;;;62.60;;
3811;SDS011;1921;49.368;11.068;2022-08-19T07:26:04;83.43;;;63.23;;
3811;SDS011;1921;49.368;11.068;2022-08-19T07:28:33;82.07;;;63.73;;
3811;SDS011;1921;49.368;11.068;2022-08-19T07:30:59;76.63;;;59.33;;
3811;SDS011;1921;49.368;11.068;2022-08-19T07:33:27;78.67;;;60.50;;
3811;SDS011;1921;49.368;11.068;2022-08-19T07:35:54;82.20;;;60.47;;
3811;SDS011;1921;49.368;11.068;2022-08-19T07:38:20;82.60;;;66.70;;
3811;SDS011;1921;49.368;11.068;2022-08-19T07:40:46;84.47;;;66.20;;
3811;SDS011;1921;49.368;11.068;2022-08-19T07:43:12;83.00;;;64.77;;
3811;SDS011;1921;49.368;11.068;2022-08-19T07:45:37;76.67;;;60.73;;
3811;SDS011;1921;49.368;11.068;2022-08-19T07:48:03;83.10;;;63.07;;
3811;SDS011;1921;49.368;11.068;2022-08-19T07:50:29;68.30;;;56.20;;
3811;SDS011;1921;49.368;11.068;2022-08-19T07:52:55;77.30;;;59.47;;
3811;SDS011;1921;49.368;11.068;2022-08-19T07:55:25;72.90;;;58.90;;
3811;SDS011;1921;49.368;11.068;2022-08-19T07:57:51;67.83;;;54.90;;
3811;SDS011;1921;49.368;11.068;2022-08-19T08:00:18;77.10;;;61.17;;
3811;SDS011;1921;49.368;11.068;2022-08-19T08:02:44;73.53;;;56.80;;
3811;SDS011;1921;49.368;11.068;2022-08-19T08:05:09;70.90;;;57.20;;
3811;SDS011;1921;49.368;11.068;2022-08-19T08:07:54;74.67;;;60.73;;
3811;SDS011;1921;49.368;11.068;2022-08-19T08:10:38;74.53;;;58.33;;
3811;SDS011;1921;49.368;11.068;2022-08-19T08:13:04;74.70;;;58.80;;
3811;SDS011;1921;49.368;11.068;2022-08-19T08:15:31;76.57;;;57.60;;
3811;SDS011;1921;49.368;11.068;2022-08-19T08:17:58;80.63;;;61.60;;
3811;SDS011;1921;49.368;11.068;2022-08-19T08:20:24;72.20;;;56.80;;
3811;SDS011;1921;49.368;11.068;2022-08-19T08:22:50;73.73;;;57.40;;
3811;SDS011;1921;49.368;11.068;2022-08-19T08:25:35;67.10;;;54.30;;
3811;SDS011;1921;49.368;11.068;2022-08-19T08:28:02;73.00;;;56.77;;
3811;SDS011;1921;49.368;11.068;2022-08-19T08:30:29;74.60;;;59.53;;
3811;SDS011;1921;49.368;11.068;2022-08-19T08:32:58;73.00;;;58.87;;
3811;SDS011;1921;49.368;11.068;2022-08-19T08:35:24;80.23;;;61.97;;
3811;SDS011;1921;49.368;11.068;2022-08-19T08:37:51;74.90;;;59.50;;
3811;SDS011;1921;49.368;11.068;2022-08-19T08:40:25;70.23;;;57.80;;
3811;SDS011;1921;49.368;11.068;2022-08-19T08:46:18;73.47;;;58.30;;
3811;SDS011;1921;49.368;11.068;2022-08-19T08:51:46;73.30;;;59.07;;
3811;SDS011;1921;49.368;11.068;2022-08-19T08:54:21;76.67;;;61.47;;
3811;SDS011;1921;49.368;11.068;2022-08-19T08:56:55;78.30;;;60.70;;
3811;SDS011;1921;49.368;11.068;2022-08-19T08:59:24;79.07;;;61.60;;
3811;SDS011;1921;49.368;11.068;2022-08-19T09:01:57;75.60;;;58.83;;
3811;SDS011;1921;49.368;11.068;2022-08-19T09:04:24;83.73;;;64.90;;
3811;SDS011;1921;49.368;11.068;2022-08-19T09:10:02;83.33;;;62.30;;
3811;SDS011;1921;49.368;11.068;2022-08-19T09:13:31;91.50;;;66.67;;
3811;SDS011;1921;49.368;11.068;2022-08-19T09:15:45;88.50;;;68.03;;
3811;SDS011;1921;49.368;11.068;2022-08-19T09:18:22;91.90;;;69.43;;
3811;SDS011;1921;49.368;11.068;2022-08-19T09:20:48;79.13;;;60.10;;
3811;SDS011;1921;49.368;11.068;2022-08-19T09:23:14;94.10;;;73.80;;
3811;SDS011;1921;49.368;11.068;2022-08-19T09:25:40;93.03;;;72.10;;
3811;SDS011;1921;49.368;11.068;2022-08-19T09:28:06;82.03;;;61.63;;
3811;SDS011;1921;49.368;11.068;2022-08-19T09:30:34;78.03;;;58.60;;
3811;SDS011;1921;49.368;11.068;2022-08-19T09:33:05;87.03;;;64.97;;
3811;SDS011;1921;49.368;11.068;2022-08-19T09:35:32;87.43;;;69.17;;
3811;SDS011;1921;49.368;11.068;2022-08-19T09:37:58;80.33;;;57.80;;
3811;SDS011;1921;49.368;11.068;2022-08-19T09:40:26;81.60;;;61.43;;
3811;SDS011;1921;49.368;11.068;2022-08-19T09:42:53;83.67;;;63.20;;
3811;SDS011;1921;49.368;11.068;2022-08-19T09:45:20;80.20;;;61.73;;
3811;SDS011;1921;49.368;11.068;2022-08-19T09:47:47;87.40;;;67.83;;
3811;SDS011;1921;49.368;11.068;2022-08-19T09:50:17;86.57;;;66.40;;
3811;SDS011;1921;49.368;11.068;2022-08-19T09:52:43;87.13;;;67.33;;
3811;SDS011;1921;49.368;11.068;2022-08-19T09:55:11;82.23;;;63.90;;
3811;SDS011;1921;49.368;11.068;2022-08-19T09:57:38;83.53;;;64.70;;
3811;SDS011;1921;49.368;11.068;2022-08-19T10:00:05;83.67;;;64.47;;
3811;SDS011;1921;49.368;11.068;2022-08-19T10:02:34;80.10;;;60.97;;
3811;SDS011;1921;49.368;11.068;2022-08-19T10:05:00;84.83;;;68.37;;
3811;SDS011;1921;49.368;11.068;2022-08-19T10:07:45;78.37;;;60.10;;
3811;SDS011;1921;49.368;11.068;2022-08-19T10:10:10;85.27;;;67.30;;
3811;SDS011;1921;49.368;11.068;2022-08-19T10:12:37;83.87;;;59.43;;
3811;SDS011;1921;49.368;11.068;2022-08-19T10:15:04;86.07;;;66.90;;
3811;SDS011;1921;49.368;11.068;2022-08-19T10:17:31;87.00;;;65.83;;
3811;SDS011;1921;49.368;11.068;2022-08-19T10:19:58;93.93;;;70.00;;
3811;SDS011;1921;49.368;11.068;2022-08-19T10:22:24;85.40;;;62.67;;
3811;SDS011;1921;49.368;11.068;2022-08-19T10:24:50;86.23;;;64.00;;
3811;SDS011;1921;49.368;11.068;2022-08-19T10:27:17;81.23;;;60.63;;
3811;SDS011;1921;49.368;11.068;2022-08-19T10:29:43;83.73;;;61.10;;
3811;SDS011;1921;49.368;11.068;2022-08-19T10:32:08;84.83;;;62.13;;
3811;SDS011;1921;49.368;11.068;2022-08-19T10:34:36;88.80;;;63.23;;
3811;SDS011;1921;49.368;11.068;2022-08-19T10:37:03;76.30;;;59.10;;
3811;SDS011;1921;49.368;11.068;2022-08-19T10:39:33;95.27;;;72.00;;
3811;SDS011;1921;49.368;11.068;2022-08-19T10:42:07;91.77;;;66.50;;
3811;SDS011;1921;49.368;11.068;2022-08-19T10:44:35;88.40;;;63.63;;
3811;SDS011;1921;49.368;11.068;2022-08-19T10:47:02;88.83;;;69.47;;
3811;SDS011;1921;49.368;11.068;2022-08-19T10:49:28;90.60;;;67.70;;
3811;SDS011;1921;49.368;11.068;2022-08-19T10:51:57;92.27;;;67.47;;
3811;SDS011;1921;49.368;11.068;2022-08-19T10:54:41;85.57;;;66.50;;
3811;SDS011;1921;49.368;11.068;2022-08-19T10:57:29;94.37;;;67.90;;
3811;SDS011;1921;49.368;11.068;2022-08-19T10:59:56;89.23;;;66.33;;
3811;SDS011;1921;49.368;11.068;2022-08-19T11:02:22;91.87;;;68.23;;
3811;SDS011;1921;49.368;11.068;2022-08-19T11:04:47;77.87;;;62.53;;
3811;SDS011;1921;49.368;11.068;2022-08-19T11:07:16;82.87;;;63.30;;
3811;SDS011;1921;49.368;11.068;2022-08-19T11:09:42;78.70;;;59.63;;
3811;SDS011;1921;49.368;11.068;2022-08-19T11:12:08;86.40;;;64.40;;
3811;SDS011;1921;49.368;11.068;2022-08-19T11:14:35;78.70;;;61.00;;
3811;SDS011;1921;49.368;11.068;2022-08-19T11:17:02;77.10;;;61.07;;
3811;SDS011;1921;49.368;11.068;2022-08-19T11:19:29;87.80;;;66.90;;
3811;SDS011;1921;49.368;11.068;2022-08-19T11:21:55;84.87;;;64.90;;
3811;SDS011;1921;49.368;11.068;2022-08-19T11:24:22;73.43;;;57.73;;
3811;SDS011;1921;49.368;11.068;2022-08-19T11:26:51;88.13;;;64.93;;
3811;SDS011;1921;49.368;11.068;2022-08-19T11:29:25;86.60;;;66.53;;
3811;SDS011;1921;49.368;11.068;2022-08-19T11:31:52;92.10;;;64.37;;
3811;SDS011;1921;49.368;11.068;2022-08-19T11:34:20;87.60;;;64.20;;
3811;SDS011;1921;49.368;11.068;2022-08-19T11:36:50;77.90;;;61.30;;
3811;SDS011;1921;49.368;11.068;2022-08-19T11:39:18;92.93;;;70.23;;
3811;SDS011;1921;49.368;11.068;2022-08-19T11:41:46;94.97;;;69.17;;
3811;SDS011;1921;49.368;11.068;2022-08-19T11:44:12;91.90;;;66.40;;
3811;SDS011;1921;49.368;11.068;2022-08-19T11:46:39;96.93;;;71.70;;
3811;SDS011;1921;49.368;11.068;2022-08-19T11:49:10;91.50;;;64.83;;
3811;SDS011;1921;49.368;11.068;2022-08-19T11:51:36;95.63;;;69.77;;
3811;SDS011;1921;49.368;11.068;2022-08-19T11:54:03;97.87;;;73.40;;
3811;SDS011;1921;49.368;11.068;2022-08-19T11:56:31;99.27;;;72.60;;
3811;SDS011;1921;49.368;11.068;2022-08-19T11:58:57;107.83;;;74.87;;
3811;SDS011;1921;49.368;11.068;2022-08-19T12:01:24;103.73;;;75.30;;
3811;SDS011;1921;49.368;11.068;2022-08-19T12:03:53;101.97;;;75.20;;
3811;SDS011;1921;49.368;11.068;2022-08-19T12:06:21;99.83;;;72.47;;
3811;SDS011;1921;49.368;11.068;2022-08-19T12:08:55;99.30;;;74.20;;
3811;SDS011;1921;49.368;11.068;2022-08-19T12:11:21;109.53;;;76.90;;
3811;SDS011;1921;49.368;11.068;2022-08-19T12:13:48;91.03;;;63.60;;
3811;SDS011;1921;49.368;11.068;2022-08-19T12:16:15;102.30;;;71.20;;
3811;SDS011;1921;49.368;11.068;2022-08-19T12:18:47;106.43;;;76.47;;
3811;SDS011;1921;49.368;11.068;2022-08-19T12:21:14;77.53;;;60.37;;
3811;SDS011;1921;49.368;11.068;2022-08-19T12:23:42;126.73;;;73.57;;
3811;SDS011;1921;49.368;11.068;2022-08-19T12:26:10;117.63;;;76.87;;
3811;SDS011;1921;49.368;11.068;2022-08-19T12:28:37;121.40;;;78.97;;
3811;SDS011;1921;49.368;11.068;2022-08-19T12:31:03;121.50;;;77.47;;
3811;SDS011;1921;49.368;11.068;2022-08-19T12:33:29;122.20;;;80.73;;
3811;SDS011;1921;49.368;11.068;2022-08-19T12:35:59;116.43;;;78.90;;
3811;SDS011;1921;49.368;11.068;2022-08-19T12:38:31;129.50;;;82.13;;
3811;SDS011;1921;49.368;11.068;2022-08-19T12:40:59;132.33;;;82.70;;
3811;SDS011;1921;49.368;11.068;2022-08-19T12:43:25;123.63;;;77.97;;
3811;SDS011;1921;49.368;11.068;2022-08-19T12:45:51;131.47;;;81.10;;
3811;SDS011;1921;49.368;11.068;2022-08-19T12:48:17;114.70;;;78.53;;
3811;SDS011;1921;49.368;11.068;2022-08-19T12:50:44;127.90;;;81.40;;
3811;SDS011;1921;49.368;11.068;2022-08-19T12:53:13;125.50;;;79.77;;
3811;SDS011;1921;49.368;11.068;2022-08-19T12:55:39;129.30;;;80.40;;
3811;SDS011;1921;49.368;11.068;2022-08-19T12:58:07;127.30;;;81.70;;
3811;SDS011;1921;49.368;11.068;2022-08-19T13:00:33;149.30;;;85.70;;
3811;SDS011;1921;49.368;11.068;2022-08-19T13:02:59;126.07;;;82.73;;
3811;SDS011;1921;49.368;11.068;2022-08-19T13:05:26;125.47;;;81.27;;
3811;SDS011;1921;49.368;11.068;2022-08-19T13:07:56;142.60;;;85.10;;
3811;SDS011;1921;49.368;11.068;2022-08-19T13:10:25;136.33;;;83.60;;
3811;SDS011;1921;49.368;11.068;2022-08-19T13:13:00;137.47;;;82.53;;
3811;SDS011;1921;49.368;11.068;2022-08-19T13:15:35;114.93;;;79.57;;
3811;SDS011;1921;49.368;11.068;2022-08-19T13:18:08;125.13;;;82.83;;
3811;SDS011;1921;49.368;11.068;2022-08-19T13:20:35;130.83;;;85.87;;
3811;SDS011;1921;49.368;11.068;2022-08-19T13:23:02;125.30;;;78.53;;
3811;SDS011;1921;49.368;11.068;2022-08-19T13:25:29;127.40;;;81.40;;
3811;SDS011;1921;49.368;11.068;2022-08-19T13:27:55;127.17;;;82.57;;
3811;SDS011;1921;49.368;11.068;2022-08-19T13:30:21;101.67;;;73.37;;
3811;SDS011;1921;49.368;11.068;2022-08-19T13:33:05;107.43;;;71.77;;
3811;SDS011;1921;49.368;11.068;2022-08-19T13:38:21;116.87;;;81.70;;
3811;SDS011;1921;49.368;11.068;2022-08-19T13:40:49;123.13;;;78.87;;
3811;SDS011;1921;49.368;11.068;2022-08-19T13:43:17;132.83;;;86.97;;
3811;SDS011;1921;49.368;11.068;2022-08-19T13:45:47;129.37;;;82.10;;
3811;SDS011;1921;49.368;11.068;2022-08-19T13:48:15;133.03;;;84.20;;
3811;SDS011;1921;49.368;11.068;2022-08-19T13:50:42;136.80;;;85.00;;
3811;SDS011;1921;49.368;11.068;2022-08-19T13:53:11;137.93;;;83.20;;
3811;SDS011;1921;49.368;11.068;2022-08-19T13:55:38;115.57;;;74.47;;
3811;SDS011;1921;49.368;11.068;2022-08-19T13:58:06;114.20;;;77.93;;
3811;SDS011;1921;49.368;11.068;2022-08-19T14:00:34;119.27;;;80.20;;
3811;SDS011;1921;49.368;11.068;2022-08-19T14:03:03;140.57;;;84.97;;
3811;SDS011;1921;49.368;11.068;2022-08-19T14:05:29;101.37;;;71.50;;
3811;SDS011;1921;49.368;11.068;2022-08-19T14:07:56;104.70;;;73.23;;
3811;SDS011;1921;49.368;11.068;2022-08-19T14:10:24;113.80;;;71.50;;
3811;SDS011;1921;49.368;11.068;2022-08-19T14:12:54;130.60;;;80.30;;
3811;SDS011;1921;49.368;11.068;2022-08-19T14:15:23;139.77;;;84.27;;
3811;SDS011;1921;49.368;11.068;2022-08-19T14:17:51;154.00;;;86.00;;
3811;SDS011;1921;49.368;11.068;2022-08-19T14:20:17;152.03;;;87.97;;
3811;SDS011;1921;49.368;11.068;2022-08-19T14:22:43;106.97;;;72.00;;
3811;SDS011;1921;49.368;11.068;2022-08-19T14:25:12;119.00;;;73.17;;
3811;SDS011;1921;49.368;11.068;2022-08-19T14:27:44;138.47;;;85.83;;
3811;SDS011;1921;49.368;11.068;2022-08-19T14:30:11;145.23;;;87.27;;
3811;SDS011;1921;49.368;11.068;2022-08-19T14:32:39;152.80;;;87.50;;
3811;SDS011;1921;49.368;11.068;2022-08-19T14:35:08;112.93;;;71.00;;
3811;SDS011;1921;49.368;11.068;2022-08-19T14:37:35;126.30;;;75.97;;
3811;SDS011;1921;49.368;11.068;2022-08-19T14:40:02;122.87;;;80.83;;
3811;SDS011;1921;49.368;11.068;2022-08-19T14:42:28;98.77;;;66.40;;
3811;SDS011;1921;49.368;11.068;2022-08-19T14:44:57;96.80;;;69.70;;
3811;SDS011;1921;49.368;11.068;2022-08-19T14:47:24;93.43;;;68.07;;
3811;SDS011;1921;49.368;11.068;2022-08-19T14:49:51;97.70;;;70.07;;
3811;SDS011;1921;49.368;11.068;2022-08-19T14:52:17;75.07;;;57.83;;
3811;SDS011;1921;49.368;11.068;2022-08-19T14:54:43;97.03;;;69.23;;
3811;SDS011;1921;49.368;11.068;2022-08-19T14:57:11;71.97;;;58.13;;
3811;SDS011;1921;49.368;11.068;2022-08-19T14:59:41;98.47;;;69.67;;